This is the latest recevied weather packets stored in our database for station/object KO4APQ. If no packets are shown the sender has not sent any weather packets the latest 10 day(s).
| Time | Temp. | Humidity | Pressure | Rain* | Wind** | Luminosity | Snow |
|---|---|---|---|---|---|---|---|
| 1777915928 | 23.89° C | 33% | 1016.8 hPa | 0 mm | - | 909 W/m² | - |
| 1777915624 | 23.33° C | 34% | 1016.9 hPa | 0 mm | - | 922 W/m² | - |
| 1777915320 | 23.33° C | 36% | 1016.9 hPa | 0 mm | - | 943 W/m² | - |
| 1777915017 | 23.89° C | 37% | 1016.8 hPa | 0 mm | - | 912 W/m² | - |
| 1777914714 | 23.89° C | 35% | 1017 hPa | 0 mm | - | 918 W/m² | - |
| 1777914410 | 23.89° C | 34% | 1016.9 hPa | 0 mm | - | 914 W/m² | - |
| 1777914108 | 23.33° C | 34% | 1016.8 hPa | 0 mm | - | 878 W/m² | - |
| 1777913804 | 23.33° C | 35% | 1017 hPa | 0 mm | - | 914 W/m² | - |
| 1777913501 | 23.33° C | 36% | 1017.1 hPa | 0 mm | - | 900 W/m² | - |
| 1777912286 | 23.33° C | 38% | 1017.3 hPa | 0 mm | - | 911 W/m² | - |
| 1777911679 | 22.78° C | 36% | 1017.6 hPa | 0 mm | - | 884 W/m² | - |
| 1777907739 | 20.56° C | 41% | 1018.2 hPa | 0 mm | - | 761 W/m² | - |
| 1777906834 | 20.56° C | 38% | 1018 hPa | 0 mm | - | 731 W/m² | - |
| 1777904712 | 18.89° C | 46% | 1018.2 hPa | 0 mm | - | 643 W/m² | - |
| 1777903195 | 18.33° C | 50% | 1018.5 hPa | 0 mm | - | 561 W/m² | - |
| 1777901681 | 17.22° C | 55% | 1018.4 hPa | 0 mm | - | 466 W/m² | - |
| 1777901378 | 16.67° C | 61% | 1018.6 hPa | 0 mm | - | 450 W/m² | - |
| 1777901076 | 16.11° C | 61% | 1018.4 hPa | 0 mm | - | 427 W/m² | - |
| 1777900772 | 15.56° C | 62% | 1018.4 hPa | 0 mm | - | 402 W/m² | - |
| 1777900470 | 15.56° C | 61% | 1018.5 hPa | 0 mm | - | 377 W/m² | - |
| 1777900167 | 15.56° C | 62% | 1018.4 hPa | 0 mm | - | 368 W/m² | - |
| 1777898349 | 11.67° C | 72% | 1018.4 hPa | 0 mm | - | 261 W/m² | - |
| 1777898047 | 11.67° C | 70% | 1018.4 hPa | 0 mm | - | 243 W/m² | - |
| 1777897742 | 11.11° C | 75% | 1018.3 hPa | 0 mm | - | 225 W/m² | - |
| 1777897439 | 11.11° C | 74% | 1018.4 hPa | 0 mm | - | 208 W/m² | - |
* Rain latest hour (hover to see other rain measurements)
** Current wind speed in m/s (hover to see current wind gust speed)